This is the latest recevied weather packets stored in our database for station/object KM8V-8. If no packets are shown the sender has not sent any weather packets the latest 10 day(s).
| Time | Temp. | Humidity | Pressure | Rain* | Wind** | Luminosity | Snow |
|---|---|---|---|---|---|---|---|
| 1777604430 | 6.11° C | 77% | 1014.4 hPa | 0 mm | - | 0 W/m² | - |
| 1777604131 | 6.11° C | 77% | 1014.4 hPa | 0 mm | - | 0 W/m² | - |
| 1777603831 | 6.11° C | 76% | 1014.3 hPa | 0 mm | - | 0 W/m² | - |
| 1777603531 | 6.11° C | 75% | 1014.3 hPa | 0 mm | - | 0 W/m² | - |
| 1777603231 | 6.11° C | 75% | 1014.2 hPa | 0 mm | - | 0 W/m² | - |
| 1777602931 | 6.67° C | 75% | 1014.2 hPa | 0 mm | - | 0 W/m² | - |
| 1777602631 | 6.67° C | 74% | 1014.2 hPa | 0 mm | - | 0 W/m² | - |
| 1777602331 | 6.67° C | 73% | 1014.2 hPa | 0 mm | - | 0 W/m² | - |
| 1777602031 | 6.67° C | 71% | 1014.1 hPa | 0 mm | - | 0 W/m² | - |
| 1777601132 | 7.22° C | 69% | 1014.1 hPa | 0 mm | - | 0 W/m² | - |
| 1777600517 | 7.78° C | 67% | 1014 hPa | 0 mm | - | 0 W/m² | - |
| 1777586424 | 12.22° C | 50% | 1013.1 hPa | 0 mm | - | 353 W/m² | - |
| 1777586122 | 12.22° C | 50% | 1013.1 hPa | 0 mm | - | 367 W/m² | - |
| 1777585822 | 12.22° C | 51% | 1013.1 hPa | 0 mm | - | 385 W/m² | - |
| 1777584622 | 12.22° C | 50% | 1013.1 hPa | 0 mm | - | 450 W/m² | - |
| 1777584317 | 12.22° C | 51% | 1013.1 hPa | 0 mm | - | 465 W/m² | - |
| 1777584022 | 11.67° C | 52% | 1013.2 hPa | 0 mm | - | 491 W/m² | - |
| 1777583722 | 12.22° C | 51% | 1013.2 hPa | 0 mm | - | 411 W/m² | - |
| 1777582823 | 11.67° C | 52% | 1013.3 hPa | 0 mm | - | 572 W/m² | - |
| 1777582522 | 11.67° C | 52% | 1013.3 hPa | 0 mm | - | 524 W/m² | - |
| 1777582223 | 11.67° C | 53% | 1013.2 hPa | 0 mm | - | 582 W/m² | - |
| 1777581920 | 11.67° C | 53% | 1013.2 hPa | 0 mm | - | 504 W/m² | - |
| 1777581324 | 11.67° C | 54% | 1013.2 hPa | 0 mm | - | 639 W/m² | - |
| 1777581023 | 11.67° C | 53% | 1013.2 hPa | 0 mm | - | 658 W/m² | - |
| 1777580717 | 11.67° C | 55% | 1013.2 hPa | 0 mm | - | 611 W/m² | - |
* Rain latest hour (hover to see other rain measurements)
** Current wind speed in m/s (hover to see current wind gust speed)